sensor_id;sensor_type;location;lat;lon;timestamp;pressure;altitude;pressure_sealevel;temperature;humidity
78459;BME280;67753;42.684;23.330;2023-02-28T00:01:59;94761.59;;;8.84;59.65
78459;BME280;67753;42.684;23.330;2023-02-28T00:04:01;94783.09;;;8.72;61.83
78459;BME280;67753;42.684;23.330;2023-02-28T00:06:06;94784.63;;;8.10;64.50
78459;BME280;67753;42.684;23.330;2023-02-28T00:08:09;94779.34;;;7.98;65.78
78459;BME280;67753;42.684;23.330;2023-02-28T00:10:13;94781.78;;;8.03;66.58
78459;BME280;67753;42.684;23.330;2023-02-28T00:12:16;94786.75;;;7.88;67.80
78459;BME280;67753;42.684;23.330;2023-02-28T00:14:18;94779.56;;;8.05;68.69
78459;BME280;67753;42.684;23.330;2023-02-28T00:16:21;94785.31;;;7.63;70.06
78459;BME280;67753;42.684;23.330;2023-02-28T00:18:24;94786.81;;;8.67;70.26
78459;BME280;67753;42.684;23.330;2023-02-28T00:20:26;94839.94;;;10.36;72.16
78459;BME280;67753;42.684;23.330;2023-02-28T00:22:30;94827.41;;;9.43;75.92
78459;BME280;67753;42.684;23.330;2023-02-28T00:24:32;94813.22;;;8.88;76.41
78459;BME280;67753;42.684;23.330;2023-02-28T00:26:34;94838.75;;;10.57;77.89
78459;BME280;67753;42.684;23.330;2023-02-28T00:28:36;94838.94;;;9.28;82.54
78459;BME280;67753;42.684;23.330;2023-02-28T00:30:38;94811.94;;;9.53;84.95
78459;BME280;67753;42.684;23.330;2023-02-28T00:32:40;94811.00;;;9.45;87.08
78459;BME280;67753;42.684;23.330;2023-02-28T00:34:42;94807.41;;;8.51;90.63
78459;BME280;67753;42.684;23.330;2023-02-28T00:36:44;94811.03;;;9.84;92.60
78459;BME280;67753;42.684;23.330;2023-02-28T00:38:48;94819.25;;;9.36;96.15
78459;BME280;67753;42.684;23.330;2023-02-28T00:40:50;94817.56;;;9.28;99.49
78459;BME280;67753;42.684;23.330;2023-02-28T00:42:52;94816.44;;;9.48;100.00
78459;BME280;67753;42.684;23.330;2023-02-28T00:44:53;94816.31;;;9.61;100.00
78459;BME280;67753;42.684;23.330;2023-02-28T00:46:56;94802.13;;;8.86;100.00
78459;BME280;67753;42.684;23.330;2023-02-28T00:48:58;94793.47;;;8.58;100.00
78459;BME280;67753;42.684;23.330;2023-02-28T00:51:00;94785.19;;;9.53;100.00
78459;BME280;67753;42.684;23.330;2023-02-28T00:53:02;94795.59;;;8.68;100.00
78459;BME280;67753;42.684;23.330;2023-02-28T00:55:07;94799.66;;;8.46;100.00
78459;BME280;67753;42.684;23.330;2023-02-28T00:57:09;94781.44;;;8.83;100.00
78459;BME280;67753;42.684;23.330;2023-02-28T00:59:11;94801.13;;;8.43;100.00
78459;BME280;67753;42.684;23.330;2023-02-28T01:01:13;94820.63;;;9.30;100.00
78459;BME280;67753;42.684;23.330;2023-02-28T01:03:16;94818.63;;;9.08;100.00
78459;BME280;67753;42.684;23.330;2023-02-28T01:05:18;94802.47;;;8.69;100.00
78459;BME280;67753;42.684;23.330;2023-02-28T01:07:20;94814.91;;;8.45;100.00
78459;BME280;67753;42.684;23.330;2023-02-28T01:09:22;94806.72;;;7.94;100.00
78459;BME280;67753;42.684;23.330;2023-02-28T01:11:25;94807.34;;;8.04;100.00
78459;BME280;67753;42.684;23.330;2023-02-28T01:13:27;94810.25;;;7.99;100.00
78459;BME280;67753;42.684;23.330;2023-02-28T01:15:29;94783.75;;;9.20;100.00
78459;BME280;67753;42.684;23.330;2023-02-28T01:17:32;94802.28;;;8.30;100.00
78459;BME280;67753;42.684;23.330;2023-02-28T01:19:34;94795.28;;;8.89;100.00
78459;BME280;67753;42.684;23.330;2023-02-28T01:21:37;94803.56;;;8.20;100.00
78459;BME280;67753;42.684;23.330;2023-02-28T01:23:39;94800.75;;;8.61;100.00
78459;BME280;67753;42.684;23.330;2023-02-28T01:25:41;94844.41;;;9.70;100.00
78459;BME280;67753;42.684;23.330;2023-02-28T01:27:45;94830.34;;;9.03;100.00
78459;BME280;67753;42.684;23.330;2023-02-28T01:29:47;94836.69;;;8.79;100.00
78459;BME280;67753;42.684;23.330;2023-02-28T01:31:48;94817.66;;;8.65;100.00
78459;BME280;67753;42.684;23.330;2023-02-28T01:33:51;94833.13;;;9.61;100.00
78459;BME280;67753;42.684;23.330;2023-02-28T01:35:57;94848.09;;;9.27;100.00
78459;BME280;67753;42.684;23.330;2023-02-28T01:38:00;94824.50;;;8.34;100.00
78459;BME280;67753;42.684;23.330;2023-02-28T01:40:02;94835.97;;;8.98;100.00
78459;BME280;67753;42.684;23.330;2023-02-28T01:42:04;94848.50;;;8.78;100.00
78459;BME280;67753;42.684;23.330;2023-02-28T01:46:43;94823.56;;;8.27;100.00
78459;BME280;67753;42.684;23.330;2023-02-28T01:48:48;94835.88;;;7.87;100.00
78459;BME280;67753;42.684;23.330;2023-02-28T01:50:53;94836.63;;;7.72;100.00
78459;BME280;67753;42.684;23.330;2023-02-28T01:52:59;94828.44;;;7.53;100.00
78459;BME280;67753;42.684;23.330;2023-02-28T01:55:04;94816.38;;;7.99;100.00
78459;BME280;67753;42.684;23.330;2023-02-28T01:57:13;94844.00;;;7.91;100.00
78459;BME280;67753;42.684;23.330;2023-02-28T01:59:24;94846.38;;;9.19;100.00
78459;BME280;67753;42.684;23.330;2023-02-28T02:01:29;94866.41;;;8.46;100.00
78459;BME280;67753;42.684;23.330;2023-02-28T02:03:35;94866.84;;;8.80;100.00
78459;BME280;67753;42.684;23.330;2023-02-28T02:05:38;94838.72;;;9.17;100.00
78459;BME280;67753;42.684;23.330;2023-02-28T02:07:42;94881.84;;;8.53;100.00
78459;BME280;67753;42.684;23.330;2023-02-28T02:09:45;94860.91;;;8.86;100.00
78459;BME280;67753;42.684;23.330;2023-02-28T02:11:47;94901.91;;;9.26;100.00
78459;BME280;67753;42.684;23.330;2023-02-28T02:14:03;94933.13;;;9.37;100.00
78459;BME280;67753;42.684;23.330;2023-02-28T02:16:23;94909.63;;;9.46;100.00
78459;BME280;67753;42.684;23.330;2023-02-28T02:18:36;94907.66;;;9.79;100.00
78459;BME280;67753;42.684;23.330;2023-02-28T02:21:12;94881.50;;;8.86;100.00
78459;BME280;67753;42.684;23.330;2023-02-28T02:26:28;94888.19;;;9.11;100.00
78459;BME280;67753;42.684;23.330;2023-02-28T02:31:27;94901.56;;;8.64;100.00
78459;BME280;67753;42.684;23.330;2023-02-28T02:36:13;94882.41;;;8.02;100.00
78459;BME280;67753;42.684;23.330;2023-02-28T02:38:28;94867.72;;;8.24;100.00
78459;BME280;67753;42.684;23.330;2023-02-28T02:40:37;94880.03;;;7.45;100.00
78459;BME280;67753;42.684;23.330;2023-02-28T02:42:44;94879.69;;;7.86;100.00
78459;BME280;67753;42.684;23.330;2023-02-28T02:44:49;94873.53;;;8.42;100.00
78459;BME280;67753;42.684;23.330;2023-02-28T02:46:57;94879.06;;;8.65;100.00
78459;BME280;67753;42.684;23.330;2023-02-28T02:49:02;94886.28;;;8.33;100.00
78459;BME280;67753;42.684;23.330;2023-02-28T02:51:07;94891.66;;;8.49;100.00
78459;BME280;67753;42.684;23.330;2023-02-28T02:53:17;94885.88;;;8.78;100.00
78459;BME280;67753;42.684;23.330;2023-02-28T02:55:22;94911.47;;;7.79;100.00
78459;BME280;67753;42.684;23.330;2023-02-28T02:57:29;94918.53;;;7.72;100.00
78459;BME280;67753;42.684;23.330;2023-02-28T02:59:33;94907.78;;;8.52;100.00
78459;BME280;67753;42.684;23.330;2023-02-28T03:01:37;94929.16;;;8.12;100.00
78459;BME280;67753;42.684;23.330;2023-02-28T03:03:43;94924.53;;;8.37;100.00
78459;BME280;67753;42.684;23.330;2023-02-28T03:05:48;94915.94;;;8.59;100.00
78459;BME280;67753;42.684;23.330;2023-02-28T03:07:50;94933.31;;;8.37;100.00
78459;BME280;67753;42.684;23.330;2023-02-28T03:09:57;94946.16;;;8.19;100.00
78459;BME280;67753;42.684;23.330;2023-02-28T03:11:59;94950.00;;;8.78;100.00
78459;BME280;67753;42.684;23.330;2023-02-28T03:14:11;94950.09;;;8.98;100.00
78459;BME280;67753;42.684;23.330;2023-02-28T03:21:39;94997.19;;;10.01;100.00
78459;BME280;67753;42.684;23.330;2023-02-28T03:23:51;95044.34;;;10.60;100.00
78459;BME280;67753;42.684;23.330;2023-02-28T03:26:01;95058.22;;;10.11;100.00
78459;BME280;67753;42.684;23.330;2023-02-28T03:28:09;95060.00;;;10.22;100.00
78459;BME280;67753;42.684;23.330;2023-02-28T03:30:18;95072.25;;;10.39;100.00
78459;BME280;67753;42.684;23.330;2023-02-28T03:32:26;95072.69;;;10.41;100.00
78459;BME280;67753;42.684;23.330;2023-02-28T03:34:32;95087.31;;;10.28;100.00
78459;BME280;67753;42.684;23.330;2023-02-28T03:36:38;95091.69;;;10.20;100.00
78459;BME280;67753;42.684;23.330;2023-02-28T03:38:46;95083.34;;;10.22;100.00
78459;BME280;67753;42.684;23.330;2023-02-28T03:40:55;95098.44;;;10.30;100.00
78459;BME280;67753;42.684;23.330;2023-02-28T03:43:07;95110.03;;;10.54;100.00
78459;BME280;67753;42.684;23.330;2023-02-28T03:45:14;95104.69;;;10.54;100.00
78459;BME280;67753;42.684;23.330;2023-02-28T03:47:22;95107.88;;;10.08;100.00
78459;BME280;67753;42.684;23.330;2023-02-28T03:49:30;95112.03;;;10.06;100.00
78459;BME280;67753;42.684;23.330;2023-02-28T03:51:35;95116.69;;;10.40;100.00
78459;BME280;67753;42.684;23.330;2023-02-28T03:53:40;95132.34;;;10.58;100.00
78459;BME280;67753;42.684;23.330;2023-02-28T03:55:46;95133.09;;;10.23;100.00
78459;BME280;67753;42.684;23.330;2023-02-28T03:57:56;95138.19;;;9.81;100.00
78459;BME280;67753;42.684;23.330;2023-02-28T04:00:03;95132.41;;;9.63;100.00
78459;BME280;67753;42.684;23.330;2023-02-28T04:02:06;95164.97;;;10.28;100.00
78459;BME280;67753;42.684;23.330;2023-02-28T04:04:09;95145.59;;;10.35;100.00
78459;BME280;67753;42.684;23.330;2023-02-28T04:06:15;95149.41;;;10.49;100.00
78459;BME280;67753;42.684;23.330;2023-02-28T04:08:18;95173.00;;;10.79;100.00
78459;BME280;67753;42.684;23.330;2023-02-28T04:10:20;95170.97;;;10.57;100.00
78459;BME280;67753;42.684;23.330;2023-02-28T04:12:22;95196.28;;;10.75;100.00
78459;BME280;67753;42.684;23.330;2023-02-28T04:14:24;95195.22;;;10.80;100.00
78459;BME280;67753;42.684;23.330;2023-02-28T04:16:29;95205.22;;;10.47;100.00
78459;BME280;67753;42.684;23.330;2023-02-28T04:18:31;95192.00;;;10.55;100.00
78459;BME280;67753;42.684;23.330;2023-02-28T04:20:32;95188.44;;;10.19;100.00
78459;BME280;67753;42.684;23.330;2023-02-28T04:22:34;95189.41;;;10.11;100.00
78459;BME280;67753;42.684;23.330;2023-02-28T04:24:36;95180.97;;;9.93;100.00
78459;BME280;67753;42.684;23.330;2023-02-28T04:26:43;95180.84;;;9.89;100.00
78459;BME280;67753;42.684;23.330;2023-02-28T04:28:45;95174.56;;;9.97;100.00
78459;BME280;67753;42.684;23.330;2023-02-28T04:30:47;95174.19;;;9.67;100.00
78459;BME280;67753;42.684;23.330;2023-02-28T04:32:51;95180.31;;;9.68;100.00
78459;BME280;67753;42.684;23.330;2023-02-28T04:34:53;95175.56;;;9.61;100.00
78459;BME280;67753;42.684;23.330;2023-02-28T04:36:55;95177.06;;;10.06;100.00
78459;BME280;67753;42.684;23.330;2023-02-28T04:38:57;95176.88;;;9.99;100.00
78459;BME280;67753;42.684;23.330;2023-02-28T04:41:00;95190.25;;;10.15;100.00
78459;BME280;67753;42.684;23.330;2023-02-28T04:43:02;95184.75;;;9.48;100.00
78459;BME280;67753;42.684;23.330;2023-02-28T04:45:06;95193.31;;;9.54;100.00
78459;BME280;67753;42.684;23.330;2023-02-28T04:47:10;95194.25;;;9.89;100.00
78459;BME280;67753;42.684;23.330;2023-02-28T04:49:14;95203.50;;;9.64;100.00
78459;BME280;67753;42.684;23.330;2023-02-28T04:51:17;95235.56;;;10.52;100.00
78459;BME280;67753;42.684;23.330;2023-02-28T04:53:21;95255.19;;;10.56;100.00
78459;BME280;67753;42.684;23.330;2023-02-28T04:55:23;95256.78;;;10.92;100.00
78459;BME280;67753;42.684;23.330;2023-02-28T04:57:24;95255.19;;;10.91;100.00
78459;BME280;67753;42.684;23.330;2023-02-28T04:59:26;95265.34;;;11.17;100.00
78459;BME280;67753;42.684;23.330;2023-02-28T05:01:30;95260.19;;;10.73;100.00
78459;BME280;67753;42.684;23.330;2023-02-28T05:03:32;95263.31;;;10.94;100.00
78459;BME280;67753;42.684;23.330;2023-02-28T05:05:36;95229.59;;;9.67;100.00
78459;BME280;67753;42.684;23.330;2023-02-28T05:07:38;95230.09;;;9.57;100.00
78459;BME280;67753;42.684;23.330;2023-02-28T05:09:40;95230.59;;;9.90;100.00
78459;BME280;67753;42.684;23.330;2023-02-28T05:11:42;95238.03;;;9.69;100.00
78459;BME280;67753;42.684;23.330;2023-02-28T05:13:45;95236.19;;;9.85;100.00
78459;BME280;67753;42.684;23.330;2023-02-28T05:15:47;95255.41;;;10.19;100.00
78459;BME280;67753;42.684;23.330;2023-02-28T05:17:49;95248.31;;;9.67;100.00
78459;BME280;67753;42.684;23.330;2023-02-28T05:19:51;95249.88;;;9.40;100.00
78459;BME280;67753;42.684;23.330;2023-02-28T05:21:55;95240.16;;;9.07;100.00
78459;BME280;67753;42.684;23.330;2023-02-28T05:23:58;95233.50;;;9.41;100.00
78459;BME280;67753;42.684;23.330;2023-02-28T05:26:01;95229.22;;;8.72;100.00
78459;BME280;67753;42.684;23.330;2023-02-28T05:28:03;95240.41;;;7.59;100.00
78459;BME280;67753;42.684;23.330;2023-02-28T05:30:06;95251.31;;;7.12;100.00
78459;BME280;67753;42.684;23.330;2023-02-28T05:32:11;95257.22;;;6.97;100.00
78459;BME280;67753;42.684;23.330;2023-02-28T05:34:14;95257.81;;;7.02;100.00
78459;BME280;67753;42.684;23.330;2023-02-28T05:36:17;95262.22;;;7.19;100.00
78459;BME280;67753;42.684;23.330;2023-02-28T05:38:21;95259.59;;;7.10;100.00
78459;BME280;67753;42.684;23.330;2023-02-28T05:40:23;95255.19;;;7.14;100.00
78459;BME280;67753;42.684;23.330;2023-02-28T05:42:25;95247.97;;;7.15;100.00
78459;BME280;67753;42.684;23.330;2023-02-28T05:44:27;95244.03;;;7.21;100.00
78459;BME280;67753;42.684;23.330;2023-02-28T05:46:28;95240.88;;;7.19;100.00
78459;BME280;67753;42.684;23.330;2023-02-28T05:48:30;95238.28;;;7.31;100.00
78459;BME280;67753;42.684;23.330;2023-02-28T05:50:32;95248.31;;;7.34;100.00
78459;BME280;67753;42.684;23.330;2023-02-28T05:52:34;95244.66;;;7.39;100.00
78459;BME280;67753;42.684;23.330;2023-02-28T05:54:37;95251.41;;;7.36;100.00
78459;BME280;67753;42.684;23.330;2023-02-28T05:56:40;95256.19;;;7.31;100.00
78459;BME280;67753;42.684;23.330;2023-02-28T05:58:44;95255.00;;;7.40;100.00
78459;BME280;67753;42.684;23.330;2023-02-28T06:00:46;95263.22;;;7.48;100.00
78459;BME280;67753;42.684;23.330;2023-02-28T06:02:48;95251.16;;;7.50;100.00
78459;BME280;67753;42.684;23.330;2023-02-28T06:04:51;95242.50;;;7.32;100.00
78459;BME280;67753;42.684;23.330;2023-02-28T06:06:53;95248.75;;;7.36;100.00
78459;BME280;67753;42.684;23.330;2023-02-28T06:08:57;95249.19;;;7.38;100.00
78459;BME280;67753;42.684;23.330;2023-02-28T06:11:04;95245.03;;;7.50;100.00
78459;BME280;67753;42.684;23.330;2023-02-28T06:13:07;95243.34;;;7.45;100.00
78459;BME280;67753;42.684;23.330;2023-02-28T06:15:12;95234.88;;;7.64;100.00
78459;BME280;67753;42.684;23.330;2023-02-28T06:17:14;95242.00;;;7.72;100.00
78459;BME280;67753;42.684;23.330;2023-02-28T06:19:16;95232.88;;;7.73;100.00
78459;BME280;67753;42.684;23.330;2023-02-28T06:21:18;95233.78;;;7.77;100.00
78459;BME280;67753;42.684;23.330;2023-02-28T06:23:20;95231.81;;;7.86;100.00
78459;BME280;67753;42.684;23.330;2023-02-28T06:25:22;95225.81;;;7.89;100.00
78459;BME280;67753;42.684;23.330;2023-02-28T06:27:25;95217.56;;;7.94;100.00
78459;BME280;67753;42.684;23.330;2023-02-28T06:29:27;95216.72;;;7.90;100.00
78459;BME280;67753;42.684;23.330;2023-02-28T06:31:29;95210.72;;;8.18;100.00
78459;BME280;67753;42.684;23.330;2023-02-28T06:33:31;95219.16;;;8.08;100.00
78459;BME280;67753;42.684;23.330;2023-02-28T06:35:33;95230.31;;;8.10;100.00
78459;BME280;67753;42.684;23.330;2023-02-28T06:37:35;95238.28;;;7.98;100.00
78459;BME280;67753;42.684;23.330;2023-02-28T06:39:37;95239.22;;;8.14;100.00
78459;BME280;67753;42.684;23.330;2023-02-28T06:41:39;95240.75;;;8.27;100.00
78459;BME280;67753;42.684;23.330;2023-02-28T06:43:43;95234.50;;;8.23;100.00
78459;BME280;67753;42.684;23.330;2023-02-28T06:45:45;95249.88;;;8.26;100.00
78459;BME280;67753;42.684;23.330;2023-02-28T06:47:47;95251.78;;;8.26;100.00
78459;BME280;67753;42.684;23.330;2023-02-28T06:49:52;95259.69;;;8.34;100.00
78459;BME280;67753;42.684;23.330;2023-02-28T06:51:54;95260.09;;;8.12;100.00
78459;BME280;67753;42.684;23.330;2023-02-28T06:53:55;95258.75;;;8.06;100.00
78459;BME280;67753;42.684;23.330;2023-02-28T06:55:58;95268.31;;;8.07;100.00
78459;BME280;67753;42.684;23.330;2023-02-28T06:57:59;95266.66;;;8.27;100.00
78459;BME280;67753;42.684;23.330;2023-02-28T07:00:05;95278.38;;;8.34;100.00
78459;BME280;67753;42.684;23.330;2023-02-28T07:02:08;95273.97;;;8.38;100.00
78459;BME280;67753;42.684;23.330;2023-02-28T07:04:10;95275.03;;;8.25;100.00
78459;BME280;67753;42.684;23.330;2023-02-28T07:06:13;95281.91;;;8.26;100.00
78459;BME280;67753;42.684;23.330;2023-02-28T07:08:18;95276.44;;;8.23;100.00
78459;BME280;67753;42.684;23.330;2023-02-28T07:10:20;95280.78;;;8.15;100.00
78459;BME280;67753;42.684;23.330;2023-02-28T07:12:22;95276.41;;;7.98;100.00
78459;BME280;67753;42.684;23.330;2023-02-28T07:14:23;95280.56;;;8.20;100.00
78459;BME280;67753;42.684;23.330;2023-02-28T07:16:28;95289.47;;;8.24;100.00
78459;BME280;67753;42.684;23.330;2023-02-28T07:18:30;95282.94;;;8.34;100.00
78459;BME280;67753;42.684;23.330;2023-02-28T07:20:32;95285.53;;;8.42;100.00
78459;BME280;67753;42.684;23.330;2023-02-28T07:22:34;95283.47;;;8.27;100.00
78459;BME280;67753;42.684;23.330;2023-02-28T07:24:36;95307.69;;;8.22;100.00
78459;BME280;67753;42.684;23.330;2023-02-28T07:26:38;95341.28;;;8.23;100.00
78459;BME280;67753;42.684;23.330;2023-02-28T07:28:40;95374.34;;;8.31;100.00
78459;BME280;67753;42.684;23.330;2023-02-28T07:30:43;95387.22;;;8.50;100.00
78459;BME280;67753;42.684;23.330;2023-02-28T07:32:46;95409.06;;;8.64;100.00
78459;BME280;67753;42.684;23.330;2023-02-28T07:34:48;95428.88;;;8.63;100.00
78459;BME280;67753;42.684;23.330;2023-02-28T07:36:52;95426.03;;;8.92;100.00
78459;BME280;67753;42.684;23.330;2023-02-28T07:38:54;95433.84;;;8.98;100.00
78459;BME280;67753;42.684;23.330;2023-02-28T07:40:56;95453.69;;;9.21;100.00
78459;BME280;67753;42.684;23.330;2023-02-28T07:42:59;95471.06;;;9.15;98.01
78459;BME280;67753;42.684;23.330;2023-02-28T07:45:01;95499.91;;;8.64;95.26
78459;BME280;67753;42.684;23.330;2023-02-28T07:47:03;95479.00;;;8.66;98.51
78459;BME280;67753;42.684;23.330;2023-02-28T07:49:07;95463.66;;;8.87;99.68
78459;BME280;67753;42.684;23.330;2023-02-28T07:51:13;95461.00;;;8.87;99.40
78459;BME280;67753;42.684;23.330;2023-02-28T07:53:16;95469.81;;;8.55;97.73
78459;BME280;67753;42.684;23.330;2023-02-28T07:55:17;95470.06;;;8.62;98.42
78459;BME280;67753;42.684;23.330;2023-02-28T07:57:19;95473.78;;;8.82;97.64
78459;BME280;67753;42.684;23.330;2023-02-28T07:59:21;95474.28;;;8.96;98.20
78459;BME280;67753;42.684;23.330;2023-02-28T08:01:23;95459.28;;;9.28;98.73
78459;BME280;67753;42.684;23.330;2023-02-28T08:03:26;95478.09;;;9.68;96.09
78459;BME280;67753;42.684;23.330;2023-02-28T08:05:29;95498.06;;;9.71;94.75
78459;BME280;67753;42.684;23.330;2023-02-28T08:07:31;95491.91;;;9.83;94.34
78459;BME280;67753;42.684;23.330;2023-02-28T08:09:34;95499.50;;;9.81;93.77
78459;BME280;67753;42.684;23.330;2023-02-28T08:11:36;95473.66;;;10.25;96.22
78459;BME280;67753;42.684;23.330;2023-02-28T08:13:38;95490.53;;;10.54;94.33
78459;BME280;67753;42.684;23.330;2023-02-28T08:15:40;95517.31;;;9.64;91.50
78459;BME280;67753;42.684;23.330;2023-02-28T08:17:42;95499.69;;;10.53;93.33
78459;BME280;67753;42.684;23.330;2023-02-28T08:19:45;95531.50;;;9.65;89.80
78459;BME280;67753;42.684;23.330;2023-02-28T08:21:48;95508.88;;;10.39;93.00
78459;BME280;67753;42.684;23.330;2023-02-28T08:23:51;95501.22;;;10.82;93.87
78459;BME280;67753;42.684;23.330;2023-02-28T08:25:53;95529.31;;;10.72;90.13
78459;BME280;67753;42.684;23.330;2023-02-28T08:27:55;95522.16;;;10.76;91.87
78459;BME280;67753;42.684;23.330;2023-02-28T08:30:00;95531.94;;;10.84;90.29
78459;BME280;67753;42.684;23.330;2023-02-28T08:32:01;95517.16;;;11.34;90.83
78459;BME280;67753;42.684;23.330;2023-02-28T08:34:05;95542.91;;;11.23;87.85
78459;BME280;67753;42.684;23.330;2023-02-28T08:36:08;95533.41;;;11.41;89.77
78459;BME280;67753;42.684;23.330;2023-02-28T08:38:12;95541.78;;;11.08;86.98
78459;BME280;67753;42.684;23.330;2023-02-28T08:40:14;95534.28;;;11.45;88.54
78459;BME280;67753;42.684;23.330;2023-02-28T08:42:19;95537.06;;;11.65;87.83
78459;BME280;67753;42.684;23.330;2023-02-28T08:44:21;95555.34;;;10.71;88.29
78459;BME280;67753;42.684;23.330;2023-02-28T08:46:23;95552.09;;;10.13;87.82
78459;BME280;67753;42.684;23.330;2023-02-28T08:48:26;95525.66;;;10.24;89.44
78459;BME280;67753;42.684;23.330;2023-02-28T08:50:28;95531.84;;;10.53;90.15
78459;BME280;67753;42.684;23.330;2023-02-28T08:52:30;95535.03;;;10.30;89.23
78459;BME280;67753;42.684;23.330;2023-02-28T08:54:33;95529.28;;;10.44;88.90
78459;BME280;67753;42.684;23.330;2023-02-28T08:56:35;95534.56;;;10.16;88.70
78459;BME280;67753;42.684;23.330;2023-02-28T08:58:37;95523.47;;;10.54;90.12
78459;BME280;67753;42.684;23.330;2023-02-28T09:00:39;95520.53;;;10.31;90.54
78459;BME280;67753;42.684;23.330;2023-02-28T09:02:41;95512.66;;;10.51;91.33
78459;BME280;67753;42.684;23.330;2023-02-28T09:04:44;95513.44;;;10.79;90.80
78459;BME280;67753;42.684;23.330;2023-02-28T09:06:46;95538.47;;;10.71;88.41
78459;BME280;67753;42.684;23.330;2023-02-28T09:08:49;95533.78;;;10.68;89.66
78459;BME280;67753;42.684;23.330;2023-02-28T09:10:52;95538.06;;;11.13;86.87
78459;BME280;67753;42.684;23.330;2023-02-28T09:12:54;95542.44;;;10.89;87.88
78459;BME280;67753;42.684;23.330;2023-02-28T09:14:56;95556.97;;;11.64;84.05
78459;BME280;67753;42.684;23.330;2023-02-28T09:16:58;95546.94;;;11.61;84.51
78459;BME280;67753;42.684;23.330;2023-02-28T09:19:00;95556.88;;;11.60;83.31
78459;BME280;67753;42.684;23.330;2023-02-28T09:21:03;95545.19;;;11.52;85.29
78459;BME280;67753;42.684;23.330;2023-02-28T09:23:06;95562.50;;;11.39;83.42
78459;BME280;67753;42.684;23.330;2023-02-28T09:25:08;95560.63;;;12.38;81.50
78459;BME280;67753;42.684;23.330;2023-02-28T09:27:11;95575.66;;;11.76;80.97
78459;BME280;67753;42.684;23.330;2023-02-28T09:29:13;95547.81;;;11.96;85.03
78459;BME280;67753;42.684;23.330;2023-02-28T09:31:20;95555.66;;;11.42;82.89
78459;BME280;67753;42.684;23.330;2023-02-28T09:33:23;95551.97;;;12.10;84.38
78459;BME280;67753;42.684;23.330;2023-02-28T09:35:24;95551.97;;;11.78;82.57
78459;BME280;67753;42.684;23.330;2023-02-28T09:37:27;95554.22;;;12.43;82.38
78459;BME280;67753;42.684;23.330;2023-02-28T09:39:31;95574.38;;;12.52;78.84
78459;BME280;67753;42.684;23.330;2023-02-28T09:41:38;95565.47;;;11.97;80.58
78459;BME280;67753;42.684;23.330;2023-02-28T09:43:51;95571.34;;;12.19;80.03
78459;BME280;67753;42.684;23.330;2023-02-28T09:45:58;95567.59;;;12.59;79.05
78459;BME280;67753;42.684;23.330;2023-02-28T09:48:06;95572.59;;;12.41;78.04
78459;BME280;67753;42.684;23.330;2023-02-28T09:50:22;95562.78;;;12.33;78.70
78459;BME280;67753;42.684;23.330;2023-02-28T09:52:31;95563.13;;;12.12;79.95
78459;BME280;67753;42.684;23.330;2023-02-28T09:54:34;95574.28;;;13.23;76.66
78459;BME280;67753;42.684;23.330;2023-02-28T09:56:39;95566.28;;;13.49;77.84
78459;BME280;67753;42.684;23.330;2023-02-28T09:58:47;95566.88;;;13.39;75.87
78459;BME280;67753;42.684;23.330;2023-02-28T10:00:58;95562.06;;;13.10;76.07
78459;BME280;67753;42.684;23.330;2023-02-28T10:03:11;95569.28;;;13.05;75.11
78459;BME280;67753;42.684;23.330;2023-02-28T10:05:20;95568.41;;;13.40;76.91
78459;BME280;67753;42.684;23.330;2023-02-28T10:07:47;95569.31;;;13.25;74.14
78459;BME280;67753;42.684;23.330;2023-02-28T10:09:58;95557.13;;;13.54;76.04
78459;BME280;67753;42.684;23.330;2023-02-28T10:12:05;95558.50;;;13.44;75.81
78459;BME280;67753;42.684;23.330;2023-02-28T10:14:13;95550.59;;;13.13;74.17
78459;BME280;67753;42.684;23.330;2023-02-28T10:16:21;95547.13;;;13.54;74.83
78459;BME280;67753;42.684;23.330;2023-02-28T10:18:29;95558.31;;;13.57;72.42
78459;BME280;67753;42.684;23.330;2023-02-28T10:20:34;95553.34;;;13.81;74.32
78459;BME280;67753;42.684;23.330;2023-02-28T10:22:52;95552.63;;;13.85;71.40
78459;BME280;67753;42.684;23.330;2023-02-28T10:25:18;95548.03;;;13.85;71.76
78459;BME280;67753;42.684;23.330;2023-02-28T10:27:22;95557.47;;;13.98;71.95
78459;BME280;67753;42.684;23.330;2023-02-28T10:29:24;95553.63;;;14.26;71.93
78459;BME280;67753;42.684;23.330;2023-02-28T10:31:28;95554.19;;;14.39;73.13
78459;BME280;67753;42.684;23.330;2023-02-28T10:33:31;95554.34;;;14.23;70.99
78459;BME280;67753;42.684;23.330;2023-02-28T10:35:34;95549.81;;;14.27;71.76
78459;BME280;67753;42.684;23.330;2023-02-28T10:37:37;95547.47;;;14.82;72.39
78459;BME280;67753;42.684;23.330;2023-02-28T10:39:41;95554.38;;;14.49;68.19
78459;BME280;67753;42.684;23.330;2023-02-28T10:41:43;95543.06;;;14.70;68.08
78459;BME280;67753;42.684;23.330;2023-02-28T10:43:45;95540.75;;;14.42;69.30
78459;BME280;67753;42.684;23.330;2023-02-28T10:45:59;95542.84;;;14.52;68.01
78459;BME280;67753;42.684;23.330;2023-02-28T10:48:10;95527.94;;;14.62;69.15
78459;BME280;67753;42.684;23.330;2023-02-28T10:50:30;95524.59;;;14.16;69.26
78459;BME280;67753;42.684;23.330;2023-02-28T10:52:36;95517.34;;;14.20;72.52
78459;BME280;67753;42.684;23.330;2023-02-28T10:54:38;95519.72;;;14.25;70.61
78459;BME280;67753;42.684;23.330;2023-02-28T10:56:41;95517.41;;;14.53;69.62
78459;BME280;67753;42.684;23.330;2023-02-28T10:58:52;95517.63;;;14.41;69.74
78459;BME280;67753;42.684;23.330;2023-02-28T11:00:54;95511.38;;;14.33;69.42
78459;BME280;67753;42.684;23.330;2023-02-28T11:02:56;95513.28;;;14.60;67.81
78459;BME280;67753;42.684;23.330;2023-02-28T11:04:59;95517.69;;;14.45;67.26
78459;BME280;67753;42.684;23.330;2023-02-28T11:07:04;95499.13;;;14.70;68.95